Etusivu
METAR-TAF:

METAR-TAF

Lentoasemat :

Aupaluk, Quebec, Kanada

Leveyspiiri: 59-17-48N, Pituuspiiri: 069-35-59W, korkeus merenpinnasta: 35 m

Tämänhetkinen sää

Tämä raportti tehtiin 23 minuuttia sitten, kello 17.00 UTC
Tuuli 23 kn idästä/koillisesta puuskistuen 30 kn:hen
Lämpötila 5°C
Kosteus 60%
Ilmanpaine 1008 hPa
Näkyvyys: 24.1 km
Muutamia pilviä 9000 ft:n korkeudessa
Hajanaisia pilviä 24000 ft:n korkeudessa

METAR: CYLA 261700Z 07023G30KT 15SM FEW090 SCT240 05/M02 A2976 RMK AC1CI2 SLP082

Aika: 13:23 (17:23 UTC)


TAF: puuttuu

Säähavainnot ja -ennusteet yli 4000 lentoasemalta (METAR- ja TAF-raportit).

Käytössä olevat sääasemat on merkitty karttaan keltaisilla ja punaisilla pisteillä.

Aseta hiiri pisteen päälle nähdäksesi sääaseman nimen.

Klikkaa sitten nähdäksesi säähavainnot ja -ennusteet.

Kartan vaihtaminen: klikkaa mustalla rastilla varustettuja vihreitä pisteitä, niin voit zoomata sisään; viivalla varustettua vihreää pistettä, niin voit zoomata ulos tai vihreitä nuolia, niin pääset viereisille kartoille.


METAR-TAF: